sensor_id;sensor_type;location;lat;lon;timestamp;P1;durP1;ratioP1;P2;durP2;ratioP2
82793;SDS011;72533;52.852;6.176;2024-03-22T00:00:27;26.50;;;14.67;;
82793;SDS011;72533;52.852;6.176;2024-03-22T00:02:52;29.80;;;15.30;;
82793;SDS011;72533;52.852;6.176;2024-03-22T00:05:17;29.27;;;15.30;;
82793;SDS011;72533;52.852;6.176;2024-03-22T00:07:42;34.20;;;18.50;;
82793;SDS011;72533;52.852;6.176;2024-03-22T00:10:07;29.97;;;17.33;;
82793;SDS011;72533;52.852;6.176;2024-03-22T00:12:33;30.07;;;16.83;;
82793;SDS011;72533;52.852;6.176;2024-03-22T00:14:58;34.17;;;18.43;;
82793;SDS011;72533;52.852;6.176;2024-03-22T00:17:23;27.00;;;17.70;;
82793;SDS011;72533;52.852;6.176;2024-03-22T00:19:48;31.23;;;19.20;;
82793;SDS011;72533;52.852;6.176;2024-03-22T00:22:13;35.17;;;17.50;;
82793;SDS011;72533;52.852;6.176;2024-03-22T00:24:39;30.73;;;18.75;;
82793;SDS011;72533;52.852;6.176;2024-03-22T00:27:05;35.27;;;18.67;;
82793;SDS011;72533;52.852;6.176;2024-03-22T00:29:30;34.60;;;18.63;;
82793;SDS011;72533;52.852;6.176;2024-03-22T00:31:55;38.13;;;17.57;;
82793;SDS011;72533;52.852;6.176;2024-03-22T00:34:20;40.30;;;18.07;;
82793;SDS011;72533;52.852;6.176;2024-03-22T00:36:45;35.60;;;18.20;;
82793;SDS011;72533;52.852;6.176;2024-03-22T00:39:11;38.00;;;18.43;;
82793;SDS011;72533;52.852;6.176;2024-03-22T00:41:36;35.50;;;19.67;;
82793;SDS011;72533;52.852;6.176;2024-03-22T00:44:01;42.73;;;21.73;;
82793;SDS011;72533;52.852;6.176;2024-03-22T00:46:26;38.50;;;20.57;;
82793;SDS011;72533;52.852;6.176;2024-03-22T00:48:52;39.70;;;20.73;;
82793;SDS011;72533;52.852;6.176;2024-03-22T00:51:17;34.13;;;16.70;;
82793;SDS011;72533;52.852;6.176;2024-03-22T00:53:42;36.63;;;19.43;;
82793;SDS011;72533;52.852;6.176;2024-03-22T00:56:07;35.13;;;18.53;;
82793;SDS011;72533;52.852;6.176;2024-03-22T00:58:32;44.93;;;21.80;;
82793;SDS011;72533;52.852;6.176;2024-03-22T01:00:58;46.38;;;23.00;;
82793;SDS011;72533;52.852;6.176;2024-03-22T01:03:23;35.27;;;18.00;;
82793;SDS011;72533;52.852;6.176;2024-03-22T01:05:48;43.43;;;21.17;;
82793;SDS011;72533;52.852;6.176;2024-03-22T01:08:13;39.25;;;19.15;;
82793;SDS011;72533;52.852;6.176;2024-03-22T01:10:39;37.20;;;20.07;;
82793;SDS011;72533;52.852;6.176;2024-03-22T01:13:05;44.78;;;22.50;;
82793;SDS011;72533;52.852;6.176;2024-03-22T01:15:30;39.37;;;20.97;;
82793;SDS011;72533;52.852;6.176;2024-03-22T01:17:55;32.40;;;16.97;;
82793;SDS011;72533;52.852;6.176;2024-03-22T01:20:20;41.97;;;23.63;;
82793;SDS011;72533;52.852;6.176;2024-03-22T01:22:46;35.63;;;19.90;;
82793;SDS011;72533;52.852;6.176;2024-03-22T01:25:11;41.63;;;23.00;;
82793;SDS011;72533;52.852;6.176;2024-03-22T01:27:36;39.93;;;19.47;;
82793;SDS011;72533;52.852;6.176;2024-03-22T01:30:02;43.77;;;21.60;;
82793;SDS011;72533;52.852;6.176;2024-03-22T01:32:27;30.17;;;15.65;;
82793;SDS011;72533;52.852;6.176;2024-03-22T01:34:52;41.13;;;22.27;;
82793;SDS011;72533;52.852;6.176;2024-03-22T01:37:17;39.50;;;21.67;;
82793;SDS011;72533;52.852;6.176;2024-03-22T01:39:42;40.93;;;22.47;;
82793;SDS011;72533;52.852;6.176;2024-03-22T01:42:08;41.07;;;22.63;;
82793;SDS011;72533;52.852;6.176;2024-03-22T01:44:33;40.37;;;22.20;;
82793;SDS011;72533;52.852;6.176;2024-03-22T01:46:58;38.40;;;19.57;;
82793;SDS011;72533;52.852;6.176;2024-03-22T01:49:25;43.53;;;21.42;;
82793;SDS011;72533;52.852;6.176;2024-03-22T01:51:50;40.72;;;22.20;;
82793;SDS011;72533;52.852;6.176;2024-03-22T01:54:16;37.28;;;19.75;;
82793;SDS011;72533;52.852;6.176;2024-03-22T01:56:41;36.58;;;19.23;;
82793;SDS011;72533;52.852;6.176;2024-03-22T01:59:07;41.40;;;21.97;;
82793;SDS011;72533;52.852;6.176;2024-03-22T02:01:32;32.88;;;18.33;;
82793;SDS011;72533;52.852;6.176;2024-03-22T02:03:58;37.25;;;20.20;;
82793;SDS011;72533;52.852;6.176;2024-03-22T02:06:23;40.83;;;21.80;;
82793;SDS011;72533;52.852;6.176;2024-03-22T02:08:48;41.73;;;23.53;;
82793;SDS011;72533;52.852;6.176;2024-03-22T02:11:13;39.40;;;23.63;;
82793;SDS011;72533;52.852;6.176;2024-03-22T02:13:38;39.40;;;23.40;;
82793;SDS011;72533;52.852;6.176;2024-03-22T02:16:04;36.27;;;20.60;;
82793;SDS011;72533;52.852;6.176;2024-03-22T02:18:29;49.43;;;24.23;;
82793;SDS011;72533;52.852;6.176;2024-03-22T02:20:55;37.47;;;18.77;;
82793;SDS011;72533;52.852;6.176;2024-03-22T02:23:31;45.60;;;23.38;;
82793;SDS011;72533;52.852;6.176;2024-03-22T02:25:57;36.88;;;19.15;;
82793;SDS011;72533;52.852;6.176;2024-03-22T02:28:22;51.38;;;26.88;;
82793;SDS011;72533;52.852;6.176;2024-03-22T02:30:47;32.37;;;17.50;;
82793;SDS011;72533;52.852;6.176;2024-03-22T02:33:12;44.27;;;24.20;;
82793;SDS011;72533;52.852;6.176;2024-03-22T02:35:38;37.60;;;21.67;;
82793;SDS011;72533;52.852;6.176;2024-03-22T02:38:03;43.07;;;21.23;;
82793;SDS011;72533;52.852;6.176;2024-03-22T02:40:28;41.93;;;22.37;;
82793;SDS011;72533;52.852;6.176;2024-03-22T02:42:53;39.23;;;20.73;;
82793;SDS011;72533;52.852;6.176;2024-03-22T02:45:18;33.70;;;18.10;;
82793;SDS011;72533;52.852;6.176;2024-03-22T02:47:44;45.23;;;21.80;;
82793;SDS011;72533;52.852;6.176;2024-03-22T02:50:09;41.78;;;22.40;;
82793;SDS011;72533;52.852;6.176;2024-03-22T02:52:34;34.20;;;19.50;;
82793;SDS011;72533;52.852;6.176;2024-03-22T02:54:59;51.53;;;25.23;;
82793;SDS011;72533;52.852;6.176;2024-03-22T02:57:25;39.47;;;21.40;;
82793;SDS011;72533;52.852;6.176;2024-03-22T02:59:50;37.77;;;20.13;;
82793;SDS011;72533;52.852;6.176;2024-03-22T03:02:15;49.73;;;25.40;;
82793;SDS011;72533;52.852;6.176;2024-03-22T03:04:40;31.03;;;18.50;;
82793;SDS011;72533;52.852;6.176;2024-03-22T03:07:05;38.40;;;20.53;;
82793;SDS011;72533;52.852;6.176;2024-03-22T03:09:30;39.97;;;20.47;;
82793;SDS011;72533;52.852;6.176;2024-03-22T03:11:56;39.10;;;20.63;;
82793;SDS011;72533;52.852;6.176;2024-03-22T03:14:21;43.43;;;22.07;;
82793;SDS011;72533;52.852;6.176;2024-03-22T03:16:46;36.73;;;19.23;;
82793;SDS011;72533;52.852;6.176;2024-03-22T03:19:11;40.57;;;22.33;;
82793;SDS011;72533;52.852;6.176;2024-03-22T03:21:36;30.40;;;16.67;;
82793;SDS011;72533;52.852;6.176;2024-03-22T03:24:01;33.47;;;16.63;;
82793;SDS011;72533;52.852;6.176;2024-03-22T03:26:27;40.43;;;19.70;;
82793;SDS011;72533;52.852;6.176;2024-03-22T03:28:52;33.40;;;18.47;;
82793;SDS011;72533;52.852;6.176;2024-03-22T03:31:17;22.30;;;13.10;;
82793;SDS011;72533;52.852;6.176;2024-03-22T03:33:42;24.57;;;14.17;;
82793;SDS011;72533;52.852;6.176;2024-03-22T03:36:07;49.50;;;23.37;;
82793;SDS011;72533;52.852;6.176;2024-03-22T03:38:33;44.77;;;19.77;;
82793;SDS011;72533;52.852;6.176;2024-03-22T03:40:58;35.13;;;19.53;;
82793;SDS011;72533;52.852;6.176;2024-03-22T03:43:23;42.60;;;18.90;;
82793;SDS011;72533;52.852;6.176;2024-03-22T03:45:48;35.57;;;20.10;;
82793;SDS011;72533;52.852;6.176;2024-03-22T03:48:13;30.17;;;15.37;;
82793;SDS011;72533;52.852;6.176;2024-03-22T03:50:38;33.90;;;16.33;;
82793;SDS011;72533;52.852;6.176;2024-03-22T03:53:04;33.80;;;17.38;;
82793;SDS011;72533;52.852;6.176;2024-03-22T03:55:29;42.40;;;21.47;;
82793;SDS011;72533;52.852;6.176;2024-03-22T03:57:55;33.73;;;17.87;;
82793;SDS011;72533;52.852;6.176;2024-03-22T04:00:20;35.57;;;18.43;;
82793;SDS011;72533;52.852;6.176;2024-03-22T04:02:45;32.83;;;15.70;;
82793;SDS011;72533;52.852;6.176;2024-03-22T04:05:10;34.23;;;20.87;;
82793;SDS011;72533;52.852;6.176;2024-03-22T04:07:36;36.15;;;17.85;;
82793;SDS011;72533;52.852;6.176;2024-03-22T04:10:01;37.73;;;19.30;;
82793;SDS011;72533;52.852;6.176;2024-03-22T04:12:27;38.90;;;20.05;;
82793;SDS011;72533;52.852;6.176;2024-03-22T04:14:53;38.63;;;17.38;;
82793;SDS011;72533;52.852;6.176;2024-03-22T04:17:18;31.80;;;15.67;;
82793;SDS011;72533;52.852;6.176;2024-03-22T04:19:43;27.03;;;15.93;;
82793;SDS011;72533;52.852;6.176;2024-03-22T04:22:08;32.17;;;15.27;;
82793;SDS011;72533;52.852;6.176;2024-03-22T04:24:34;31.33;;;13.47;;
82793;SDS011;72533;52.852;6.176;2024-03-22T04:26:59;32.87;;;15.53;;
82793;SDS011;72533;52.852;6.176;2024-03-22T04:29:24;30.13;;;16.10;;
82793;SDS011;72533;52.852;6.176;2024-03-22T04:31:49;30.87;;;16.13;;
82793;SDS011;72533;52.852;6.176;2024-03-22T04:34:14;29.67;;;15.27;;
82793;SDS011;72533;52.852;6.176;2024-03-22T04:36:39;27.23;;;12.90;;
82793;SDS011;72533;52.852;6.176;2024-03-22T04:39:05;41.33;;;20.00;;
82793;SDS011;72533;52.852;6.176;2024-03-22T04:41:30;26.47;;;13.33;;
82793;SDS011;72533;52.852;6.176;2024-03-22T04:43:55;30.60;;;15.90;;
82793;SDS011;72533;52.852;6.176;2024-03-22T04:46:20;25.93;;;13.77;;
82793;SDS011;72533;52.852;6.176;2024-03-22T04:48:45;25.37;;;14.40;;
82793;SDS011;72533;52.852;6.176;2024-03-22T04:51:11;21.60;;;13.17;;
82793;SDS011;72533;52.852;6.176;2024-03-22T04:53:36;30.30;;;15.57;;
82793;SDS011;72533;52.852;6.176;2024-03-22T04:56:01;25.90;;;14.97;;
82793;SDS011;72533;52.852;6.176;2024-03-22T04:58:27;26.70;;;13.45;;
82793;SDS011;72533;52.852;6.176;2024-03-22T05:00:56;29.63;;;14.63;;
82793;SDS011;72533;52.852;6.176;2024-03-22T05:03:21;33.25;;;15.77;;
82793;SDS011;72533;52.852;6.176;2024-03-22T05:05:47;29.17;;;15.93;;
82793;SDS011;72533;52.852;6.176;2024-03-22T05:08:12;26.17;;;15.10;;
82793;SDS011;72533;52.852;6.176;2024-03-22T05:10:37;25.37;;;13.60;;
82793;SDS011;72533;52.852;6.176;2024-03-22T05:13:02;23.33;;;13.27;;
82793;SDS011;72533;52.852;6.176;2024-03-22T05:15:28;22.13;;;13.40;;
82793;SDS011;72533;52.852;6.176;2024-03-22T05:17:53;28.80;;;14.60;;
82793;SDS011;72533;52.852;6.176;2024-03-22T05:20:19;23.35;;;16.40;;
82793;SDS011;72533;52.852;6.176;2024-03-22T05:22:44;28.90;;;15.82;;
82793;SDS011;72533;52.852;6.176;2024-03-22T05:25:09;25.43;;;13.63;;
82793;SDS011;72533;52.852;6.176;2024-03-22T05:27:35;27.55;;;14.15;;
82793;SDS011;72533;52.852;6.176;2024-03-22T05:30:00;32.53;;;16.60;;
82793;SDS011;72533;52.852;6.176;2024-03-22T05:32:26;20.50;;;13.07;;
82793;SDS011;72533;52.852;6.176;2024-03-22T05:34:51;24.13;;;13.80;;
82793;SDS011;72533;52.852;6.176;2024-03-22T05:37:17;29.35;;;18.38;;
82793;SDS011;72533;52.852;6.176;2024-03-22T05:39:42;26.77;;;14.20;;
82793;SDS011;72533;52.852;6.176;2024-03-22T05:42:07;33.20;;;15.63;;
82793;SDS011;72533;52.852;6.176;2024-03-22T05:44:33;25.27;;;14.48;;
82793;SDS011;72533;52.852;6.176;2024-03-22T05:46:58;22.60;;;13.33;;
82793;SDS011;72533;52.852;6.176;2024-03-22T05:49:23;28.33;;;15.90;;
82793;SDS011;72533;52.852;6.176;2024-03-22T05:51:48;23.87;;;14.40;;
82793;SDS011;72533;52.852;6.176;2024-03-22T05:54:14;31.15;;;15.60;;
82793;SDS011;72533;52.852;6.176;2024-03-22T05:56:39;28.27;;;15.03;;
82793;SDS011;72533;52.852;6.176;2024-03-22T05:59:04;20.50;;;11.83;;
82793;SDS011;72533;52.852;6.176;2024-03-22T06:01:29;21.87;;;13.27;;
82793;SDS011;72533;52.852;6.176;2024-03-22T06:03:54;32.27;;;13.57;;
82793;SDS011;72533;52.852;6.176;2024-03-22T06:06:20;17.27;;;11.07;;
82793;SDS011;72533;52.852;6.176;2024-03-22T06:08:49;25.05;;;13.93;;
82793;SDS011;72533;52.852;6.176;2024-03-22T06:11:17;21.23;;;11.73;;
82793;SDS011;72533;52.852;6.176;2024-03-22T06:13:42;31.03;;;14.10;;
82793;SDS011;72533;52.852;6.176;2024-03-22T06:16:07;20.40;;;12.60;;
82793;SDS011;72533;52.852;6.176;2024-03-22T06:18:33;30.23;;;16.27;;
82793;SDS011;72533;52.852;6.176;2024-03-22T06:20:58;24.23;;;12.57;;
82793;SDS011;72533;52.852;6.176;2024-03-22T06:23:23;24.27;;;12.93;;
82793;SDS011;72533;52.852;6.176;2024-03-22T06:25:52;23.43;;;14.57;;
82793;SDS011;72533;52.852;6.176;2024-03-22T06:28:17;22.23;;;10.70;;
82793;SDS011;72533;52.852;6.176;2024-03-22T06:30:42;21.83;;;11.33;;
82793;SDS011;72533;52.852;6.176;2024-03-22T06:33:07;31.87;;;17.20;;
82793;SDS011;72533;52.852;6.176;2024-03-22T06:35:33;28.07;;;11.83;;
82793;SDS011;72533;52.852;6.176;2024-03-22T06:37:58;27.37;;;10.53;;
82793;SDS011;72533;52.852;6.176;2024-03-22T06:40:23;24.17;;;11.67;;
82793;SDS011;72533;52.852;6.176;2024-03-22T06:42:48;18.70;;;10.60;;
82793;SDS011;72533;52.852;6.176;2024-03-22T06:45:13;23.93;;;12.63;;
82793;SDS011;72533;52.852;6.176;2024-03-22T06:47:40;19.13;;;10.07;;
82793;SDS011;72533;52.852;6.176;2024-03-22T06:50:06;21.87;;;10.60;;
82793;SDS011;72533;52.852;6.176;2024-03-22T06:52:31;19.93;;;11.17;;
82793;SDS011;72533;52.852;6.176;2024-03-22T06:54:56;23.17;;;11.03;;
82793;SDS011;72533;52.852;6.176;2024-03-22T06:57:21;25.00;;;12.13;;
82793;SDS011;72533;52.852;6.176;2024-03-22T06:59:46;21.03;;;11.40;;
82793;SDS011;72533;52.852;6.176;2024-03-22T07:02:12;24.47;;;9.57;;
82793;SDS011;72533;52.852;6.176;2024-03-22T07:04:39;17.85;;;10.85;;
82793;SDS011;72533;52.852;6.176;2024-03-22T07:07:04;21.27;;;9.80;;
82793;SDS011;72533;52.852;6.176;2024-03-22T07:09:29;19.83;;;11.13;;
82793;SDS011;72533;52.852;6.176;2024-03-22T07:11:57;18.73;;;9.95;;
82793;SDS011;72533;52.852;6.176;2024-03-22T07:14:22;16.90;;;10.00;;
82793;SDS011;72533;52.852;6.176;2024-03-22T07:16:49;13.40;;;7.28;;
82793;SDS011;72533;52.852;6.176;2024-03-22T07:19:14;19.95;;;11.02;;
82793;SDS011;72533;52.852;6.176;2024-03-22T07:21:40;19.73;;;10.07;;
82793;SDS011;72533;52.852;6.176;2024-03-22T07:24:05;16.33;;;9.53;;
82793;SDS011;72533;52.852;6.176;2024-03-22T07:26:30;14.70;;;7.33;;
82793;SDS011;72533;52.852;6.176;2024-03-22T07:28:55;15.63;;;7.72;;
82793;SDS011;72533;52.852;6.176;2024-03-22T07:31:20;18.13;;;9.87;;
82793;SDS011;72533;52.852;6.176;2024-03-22T07:33:46;21.47;;;9.87;;
82793;SDS011;72533;52.852;6.176;2024-03-22T07:36:11;15.07;;;7.27;;
82793;SDS011;72533;52.852;6.176;2024-03-22T07:38:36;14.87;;;7.17;;
82793;SDS011;72533;52.852;6.176;2024-03-22T07:41:03;17.05;;;8.32;;
82793;SDS011;72533;52.852;6.176;2024-03-22T07:43:29;15.57;;;6.60;;
82793;SDS011;72533;52.852;6.176;2024-03-22T07:45:54;11.20;;;6.47;;
82793;SDS011;72533;52.852;6.176;2024-03-22T07:48:20;21.73;;;9.32;;
82793;SDS011;72533;52.852;6.176;2024-03-22T07:50:45;14.83;;;8.33;;
82793;SDS011;72533;52.852;6.176;2024-03-22T07:53:10;15.10;;;8.37;;
82793;SDS011;72533;52.852;6.176;2024-03-22T07:55:35;17.52;;;7.25;;
82793;SDS011;72533;52.852;6.176;2024-03-22T07:58:01;21.00;;;9.00;;
82793;SDS011;72533;52.852;6.176;2024-03-22T08:00:26;18.63;;;8.93;;
82793;SDS011;72533;52.852;6.176;2024-03-22T08:02:51;16.23;;;9.70;;
82793;SDS011;72533;52.852;6.176;2024-03-22T08:05:17;17.58;;;8.07;;
82793;SDS011;72533;52.852;6.176;2024-03-22T08:07:42;17.23;;;8.63;;
82793;SDS011;72533;52.852;6.176;2024-03-22T08:10:08;19.02;;;10.10;;
82793;SDS011;72533;52.852;6.176;2024-03-22T08:12:33;12.88;;;6.30;;
82793;SDS011;72533;52.852;6.176;2024-03-22T08:14:59;20.73;;;8.87;;
82793;SDS011;72533;52.852;6.176;2024-03-22T08:17:24;14.47;;;6.93;;
82793;SDS011;72533;52.852;6.176;2024-03-22T08:19:49;17.58;;;8.20;;
82793;SDS011;72533;52.852;6.176;2024-03-22T08:22:14;16.20;;;8.33;;
82793;SDS011;72533;52.852;6.176;2024-03-22T08:24:39;17.33;;;9.70;;
82793;SDS011;72533;52.852;6.176;2024-03-22T08:27:05;16.70;;;8.40;;
82793;SDS011;72533;52.852;6.176;2024-03-22T08:29:30;15.37;;;8.00;;
82793;SDS011;72533;52.852;6.176;2024-03-22T08:31:55;21.52;;;9.93;;
82793;SDS011;72533;52.852;6.176;2024-03-22T08:34:21;14.30;;;9.17;;
82793;SDS011;72533;52.852;6.176;2024-03-22T08:36:46;17.88;;;10.25;;
82793;SDS011;72533;52.852;6.176;2024-03-22T08:39:12;15.00;;;7.65;;
82793;SDS011;72533;52.852;6.176;2024-03-22T08:41:37;17.47;;;9.37;;
82793;SDS011;72533;52.852;6.176;2024-03-22T08:44:03;24.38;;;8.90;;
82793;SDS011;72533;52.852;6.176;2024-03-22T08:46:28;20.47;;;8.83;;
82793;SDS011;72533;52.852;6.176;2024-03-22T08:48:53;17.13;;;9.17;;
82793;SDS011;72533;52.852;6.176;2024-03-22T08:51:19;19.80;;;8.18;;
82793;SDS011;72533;52.852;6.176;2024-03-22T08:53:44;18.30;;;8.80;;
82793;SDS011;72533;52.852;6.176;2024-03-22T08:56:09;16.40;;;7.83;;
82793;SDS011;72533;52.852;6.176;2024-03-22T08:58:34;17.27;;;9.90;;
82793;SDS011;72533;52.852;6.176;2024-03-22T09:00:59;16.10;;;8.87;;
82793;SDS011;72533;52.852;6.176;2024-03-22T09:03:24;16.53;;;9.13;;
82793;SDS011;72533;52.852;6.176;2024-03-22T09:05:53;17.77;;;9.43;;
82793;SDS011;72533;52.852;6.176;2024-03-22T09:08:18;15.25;;;7.38;;
82793;SDS011;72533;52.852;6.176;2024-03-22T09:10:44;14.85;;;7.68;;
82793;SDS011;72533;52.852;6.176;2024-03-22T09:13:10;16.13;;;7.93;;
82793;SDS011;72533;52.852;6.176;2024-03-22T09:15:37;21.38;;;10.00;;
82793;SDS011;72533;52.852;6.176;2024-03-22T09:18:02;19.27;;;9.67;;
82793;SDS011;72533;52.852;6.176;2024-03-22T09:20:27;25.20;;;11.30;;
82793;SDS011;72533;52.852;6.176;2024-03-22T09:22:53;22.43;;;10.97;;
82793;SDS011;72533;52.852;6.176;2024-03-22T09:25:18;17.38;;;7.97;;
82793;SDS011;72533;52.852;6.176;2024-03-22T09:27:43;13.97;;;7.37;;
82793;SDS011;72533;52.852;6.176;2024-03-22T09:30:09;14.67;;;6.93;;
82793;SDS011;72533;52.852;6.176;2024-03-22T09:32:34;20.23;;;8.65;;
82793;SDS011;72533;52.852;6.176;2024-03-22T09:35:00;15.67;;;8.10;;
82793;SDS011;72533;52.852;6.176;2024-03-22T09:37:25;14.23;;;8.93;;
82793;SDS011;72533;52.852;6.176;2024-03-22T09:39:50;14.37;;;7.17;;
82793;SDS011;72533;52.852;6.176;2024-03-22T09:42:16;16.67;;;10.23;;
82793;SDS011;72533;52.852;6.176;2024-03-22T09:44:42;14.82;;;7.32;;
82793;SDS011;72533;52.852;6.176;2024-03-22T09:47:11;18.20;;;7.80;;
82793;SDS011;72533;52.852;6.176;2024-03-22T09:49:39;18.42;;;7.30;;
82793;SDS011;72533;52.852;6.176;2024-03-22T09:52:04;13.33;;;7.20;;
82793;SDS011;72533;52.852;6.176;2024-03-22T09:54:30;13.20;;;9.40;;
82793;SDS011;72533;52.852;6.176;2024-03-22T09:56:55;10.43;;;6.15;;
82793;SDS011;72533;52.852;6.176;2024-03-22T09:59:21;13.10;;;6.78;;
82793;SDS011;72533;52.852;6.176;2024-03-22T10:01:46;14.77;;;7.88;;
82793;SDS011;72533;52.852;6.176;2024-03-22T10:04:12;12.57;;;5.85;;
82793;SDS011;72533;52.852;6.176;2024-03-22T10:06:38;13.80;;;7.53;;
82793;SDS011;72533;52.852;6.176;2024-03-22T10:09:03;12.67;;;7.07;;
82793;SDS011;72533;52.852;6.176;2024-03-22T10:11:29;12.63;;;6.93;;
82793;SDS011;72533;52.852;6.176;2024-03-22T10:13:55;14.23;;;5.33;;
82793;SDS011;72533;52.852;6.176;2024-03-22T10:16:23;14.02;;;7.95;;
82793;SDS011;72533;52.852;6.176;2024-03-22T10:21:16;9.97;;;6.10;;
82793;SDS011;72533;52.852;6.176;2024-03-22T10:23:42;11.30;;;6.32;;
82793;SDS011;72533;52.852;6.176;2024-03-22T10:26:09;12.00;;;7.10;;
82793;SDS011;72533;52.852;6.176;2024-03-22T10:28:35;15.10;;;7.72;;
82793;SDS011;72533;52.852;6.176;2024-03-22T10:31:00;13.73;;;6.13;;
82793;SDS011;72533;52.852;6.176;2024-03-22T10:33:26;10.90;;;8.30;;
82793;SDS011;72533;52.852;6.176;2024-03-22T10:35:52;14.77;;;9.80;;
82793;SDS011;72533;52.852;6.176;2024-03-22T10:38:18;11.32;;;6.53;;
82793;SDS011;72533;52.852;6.176;2024-03-22T10:40:44;15.98;;;8.32;;
82793;SDS011;72533;52.852;6.176;2024-03-22T10:43:10;12.15;;;6.40;;
82793;SDS011;72533;52.852;6.176;2024-03-22T10:45:35;12.53;;;8.03;;
82793;SDS011;72533;52.852;6.176;2024-03-22T10:48:01;10.02;;;5.25;;
82793;SDS011;72533;52.852;6.176;2024-03-22T10:50:28;11.07;;;5.32;;
82793;SDS011;72533;52.852;6.176;2024-03-22T10:52:56;11.27;;;7.28;;
82793;SDS011;72533;52.852;6.176;2024-03-22T10:55:30;12.10;;;6.40;;
82793;SDS011;72533;52.852;6.176;2024-03-22T10:57:57;11.55;;;6.43;;
82793;SDS011;72533;52.852;6.176;2024-03-22T11:00:33;12.27;;;6.43;;
82793;SDS011;72533;52.852;6.176;2024-03-22T11:02:58;12.35;;;5.93;;
82793;SDS011;72533;52.852;6.176;2024-03-22T11:05:25;17.43;;;8.07;;
82793;SDS011;72533;52.852;6.176;2024-03-22T11:08:00;11.70;;;6.63;;
82793;SDS011;72533;52.852;6.176;2024-03-22T11:10:26;9.25;;;4.63;;
82793;SDS011;72533;52.852;6.176;2024-03-22T11:12:51;10.73;;;4.82;;
82793;SDS011;72533;52.852;6.176;2024-03-22T11:15:16;9.93;;;4.47;;
82793;SDS011;72533;52.852;6.176;2024-03-22T11:17:43;10.73;;;4.90;;
82793;SDS011;72533;52.852;6.176;2024-03-22T11:20:08;9.10;;;4.07;;
82793;SDS011;72533;52.852;6.176;2024-03-22T11:22:37;11.50;;;6.53;;
82793;SDS011;72533;52.852;6.176;2024-03-22T11:25:02;10.30;;;4.78;;
82793;SDS011;72533;52.852;6.176;2024-03-22T11:27:27;7.00;;;3.67;;
82793;SDS011;72533;52.852;6.176;2024-03-22T11:29:52;10.03;;;4.20;;
82793;SDS011;72533;52.852;6.176;2024-03-22T11:32:19;7.85;;;4.00;;
82793;SDS011;72533;52.852;6.176;2024-03-22T11:34:45;8.03;;;3.50;;
82793;SDS011;72533;52.852;6.176;2024-03-22T11:37:11;7.65;;;3.78;;
82793;SDS011;72533;52.852;6.176;2024-03-22T11:39:37;7.53;;;3.63;;
82793;SDS011;72533;52.852;6.176;2024-03-22T11:42:03;8.00;;;3.38;;
82793;SDS011;72533;52.852;6.176;2024-03-22T11:44:29;7.65;;;2.95;;
82793;SDS011;72533;52.852;6.176;2024-03-22T11:46:56;9.52;;;3.75;;
82793;SDS011;72533;52.852;6.176;2024-03-22T11:49:21;7.70;;;3.37;;
82793;SDS011;72533;52.852;6.176;2024-03-22T11:51:46;7.53;;;3.13;;
82793;SDS011;72533;52.852;6.176;2024-03-22T11:54:11;7.80;;;4.03;;
82793;SDS011;72533;52.852;6.176;2024-03-22T11:56:36;7.40;;;3.43;;
82793;SDS011;72533;52.852;6.176;2024-03-22T11:59:02;7.63;;;3.70;;
82793;SDS011;72533;52.852;6.176;2024-03-22T12:01:28;4.95;;;2.60;;
82793;SDS011;72533;52.852;6.176;2024-03-22T12:03:53;7.70;;;3.67;;
82793;SDS011;72533;52.852;6.176;2024-03-22T12:06:19;7.93;;;2.73;;
82793;SDS011;72533;52.852;6.176;2024-03-22T12:08:45;7.65;;;2.65;;
82793;SDS011;72533;52.852;6.176;2024-03-22T12:11:10;5.77;;;2.73;;
82793;SDS011;72533;52.852;6.176;2024-03-22T12:13:35;6.80;;;3.72;;
82793;SDS011;72533;52.852;6.176;2024-03-22T12:16:00;7.83;;;3.87;;
82793;SDS011;72533;52.852;6.176;2024-03-22T12:18:28;6.68;;;2.70;;
82793;SDS011;72533;52.852;6.176;2024-03-22T12:20:54;7.53;;;5.20;;
82793;SDS011;72533;52.852;6.176;2024-03-22T12:23:19;7.67;;;3.17;;
82793;SDS011;72533;52.852;6.176;2024-03-22T12:25:44;10.73;;;4.33;;
82793;SDS011;72533;52.852;6.176;2024-03-22T12:28:09;7.57;;;2.60;;
82793;SDS011;72533;52.852;6.176;2024-03-22T12:30:34;9.03;;;2.90;;
82793;SDS011;72533;52.852;6.176;2024-03-22T12:33:00;9.07;;;3.63;;
82793;SDS011;72533;52.852;6.176;2024-03-22T12:35:26;8.02;;;2.55;;
82793;SDS011;72533;52.852;6.176;2024-03-22T12:37:51;9.13;;;3.40;;
82793;SDS011;72533;52.852;6.176;2024-03-22T12:40:16;9.37;;;3.30;;
82793;SDS011;72533;52.852;6.176;2024-03-22T12:42:41;6.63;;;3.73;;
82793;SDS011;72533;52.852;6.176;2024-03-22T12:45:06;9.63;;;2.73;;
82793;SDS011;72533;52.852;6.176;2024-03-22T12:47:32;7.82;;;2.40;;
82793;SDS011;72533;52.852;6.176;2024-03-22T12:49:57;7.23;;;2.63;;
82793;SDS011;72533;52.852;6.176;2024-03-22T12:52:23;6.97;;;3.03;;
82793;SDS011;72533;52.852;6.176;2024-03-22T12:54:48;11.93;;;3.23;;
82793;SDS011;72533;52.852;6.176;2024-03-22T12:57:13;8.03;;;4.00;;
82793;SDS011;72533;52.852;6.176;2024-03-22T12:59:38;12.03;;;4.13;;
82793;SDS011;72533;52.852;6.176;2024-03-22T13:02:03;11.33;;;4.00;;
82793;SDS011;72533;52.852;6.176;2024-03-22T13:04:29;9.85;;;3.95;;
82793;SDS011;72533;52.852;6.176;2024-03-22T13:06:54;9.77;;;3.97;;
82793;SDS011;72533;52.852;6.176;2024-03-22T13:09:20;13.27;;;4.15;;
82793;SDS011;72533;52.852;6.176;2024-03-22T13:11:46;10.88;;;4.13;;
82793;SDS011;72533;52.852;6.176;2024-03-22T13:14:12;9.90;;;4.10;;
82793;SDS011;72533;52.852;6.176;2024-03-22T13:16:37;10.33;;;4.50;;
82793;SDS011;72533;52.852;6.176;2024-03-22T13:19:02;9.13;;;3.90;;
82793;SDS011;72533;52.852;6.176;2024-03-22T13:21:29;8.68;;;4.95;;
82793;SDS011;72533;52.852;6.176;2024-03-22T13:23:56;10.30;;;4.50;;
82793;SDS011;72533;52.852;6.176;2024-03-22T13:26:21;11.00;;;4.80;;
82793;SDS011;72533;52.852;6.176;2024-03-22T13:28:46;15.00;;;5.03;;
82793;SDS011;72533;52.852;6.176;2024-03-22T13:31:11;13.60;;;6.30;;
82793;SDS011;72533;52.852;6.176;2024-03-22T13:33:36;10.57;;;5.83;;
82793;SDS011;72533;52.852;6.176;2024-03-22T13:36:02;11.40;;;4.20;;
82793;SDS011;72533;52.852;6.176;2024-03-22T13:38:27;11.45;;;5.63;;
82793;SDS011;72533;52.852;6.176;2024-03-22T13:40:57;11.57;;;5.03;;
82793;SDS011;72533;52.852;6.176;2024-03-22T13:43:31;11.25;;;5.20;;
82793;SDS011;72533;52.852;6.176;2024-03-22T13:45:56;15.63;;;5.47;;
82793;SDS011;72533;52.852;6.176;2024-03-22T13:48:22;16.92;;;5.97;;
82793;SDS011;72533;52.852;6.176;2024-03-22T13:50:53;10.00;;;4.43;;
82793;SDS011;72533;52.852;6.176;2024-03-22T13:53:19;10.48;;;5.25;;
82793;SDS011;72533;52.852;6.176;2024-03-22T13:55:47;9.15;;;4.07;;
82793;SDS011;72533;52.852;6.176;2024-03-22T13:58:12;13.00;;;3.65;;
82793;SDS011;72533;52.852;6.176;2024-03-22T14:00:37;10.98;;;4.20;;
82793;SDS011;72533;52.852;6.176;2024-03-22T14:03:03;9.47;;;4.30;;
82793;SDS011;72533;52.852;6.176;2024-03-22T14:05:28;12.68;;;4.80;;
82793;SDS011;72533;52.852;6.176;2024-03-22T14:07:54;13.88;;;5.72;;
82793;SDS011;72533;52.852;6.176;2024-03-22T14:10:19;13.82;;;5.97;;
82793;SDS011;72533;52.852;6.176;2024-03-22T14:12:47;13.07;;;5.30;;
82793;SDS011;72533;52.852;6.176;2024-03-22T14:15:12;14.75;;;4.57;;
82793;SDS011;72533;52.852;6.176;2024-03-22T14:17:38;13.48;;;6.05;;
82793;SDS011;72533;52.852;6.176;2024-03-22T14:20:03;17.40;;;4.80;;